Terminal Aerodrome Forecast
Issued by NWS North Platte, NE

Home | Current Version | Previous Version | Graphics & Text | Print | Product List | Glossary On
Versions: 1 2 3 4 5 6 7 8 9 10 11 12 13 14 15 16 17 18
000
FTUS43 KLBF 180500
TAFVTN
TAF
KVTN 180534Z 1806/1906 07008KT P6SM SCT250
     FM181200 16010KT 5SM BR OVC011
     FM181800 17014G19KT P6SM SCT011
     FM190100 16013KT P6SM BKN250=

USA.gov is the U.S. government's official web portal to all federal, state and local government web resources and services.